Date,TemperatureHighF,TemperatureAvgF,TemperatureLowF,DewpointHighF,DewpointAvgF,DewpointLowF,HumidityHigh,HumidityAvg,HumidityLow,PressureMaxIn,PressureMinIn,WindSpeedMaxMPH,WindSpeedAvgMPH,GustSpeedMaxMPH,PrecipitationSumIn
2013-3-1,30,27,24,24,22,18,91,84,76,30.40,30.23,7,3,0,0.00
2013-3-2,29,22,13,19,16,10,90,79,64,30.43,30.30,7,2,0,0.00
2013-3-3,35,28,21,26,22,17,92,79,66,30.30,30.02,11,3,0,0.01
2013-3-4,38,32,27,32,29,25,94,88,78,30.03,29.88,12,3,0,0.02
2013-3-5,32,30,27,30,26,22,95,85,72,30.35,30.01,17,7,0,0.06
2013-3-6,30,25,18,24,20,15,98,82,71,30.51,30.36,10,4,0,0.00
2013-3-7,34,24,14,27,20,12,92,85,75,30.49,30.38,7,2,0,0.00
2013-3-8,43,34,24,34,29,22,94,84,64,30.41,30.15,12,5,0,0.00
2013-3-9,43,39,36,42,37,34,98,95,85,30.14,29.69,13,6,0,1.20
2013-3-10,42,37,33,41,36,33,98,97,96,29.80,29.68,8,2,0,0.71
2013-3-11,33,29,26,33,27,22,97,90,81,30.03,29.75,18,6,0,0.00
2013-3-12,34,28,23,27,22,19,92,81,67,30.32,30.03,17,6,0,0.01
2013-3-13,36,27,18,24,19,15,87,74,50,30.54,30.33,11,4,0,0.00
2013-3-14,54,39,27,39,31,22,88,73,55,30.42,30.14,13,3,0,0.00
2013-3-15,56,41,31,47,37,29,94,85,70,30.14,29.77,7,1,0,0.00
2013-3-16,38,34,29,36,29,23,93,82,69,30.27,29.84,13,4,0,0.00
2013-3-17,39,31,24,30,25,19,92,79,65,30.26,29.92,9,3,0,0.00
2013-3-18,35,30,22,33,25,16,96,81,63,30.07,29.80,21,5,0,0.14
2013-3-19,39,26,18,22,15,9,80,63,37,30.32,30.05,11,5,0,0.02
2013-3-20,27,21,15,20,10,4,79,63,47,30.42,30.24,15,7,0,0.00
2013-3-21,36,23,10,19,13,6,86,68,44,30.25,30.08,5,1,0,0.00
2013-3-22,39,29,17,25,20,15,98,71,47,30.17,30.08,5,0,0,0.00
2013-3-23,41,32,26,30,25,21,95,75,49,30.20,30.06,8,1,0,0.00
2013-3-24,30,29,28,29,28,27,96,95,92,30.11,29.95,11,4,0,0.06
2013-3-25,36,30,27,28,25,23,96,82,65,30.33,30.03,14,5,0,0.16
2013-3-26,38,30,22,26,23,18,88,75,55,30.43,30.34,12,4,0,0.02
2013-3-27,48,34,25,32,26,21,87,74,48,30.45,30.34,6,1,0,0.00
2013-3-28,56,41,28,40,32,25,91,73,50,30.40,30.29,8,1,0,0.00
2013-3-29,63,46,29,42,35,28,94,68,41,30.35,30.20,8,1,0,0.00
2013-3-30,52,47,41,50,44,35,97,88,66,30.20,29.92,10,2,0,0.24
2013-3-31,53,43,34,42,35,24,98,76,35,30.14,29.93,20,5,0,0.01